Hlavní strana
METAR-TAF:

METAR-TAF

Letiště :

Krasnodar, Rusko

zeměpisná šířka: 45-02N, zeměpisná délka: 039-09E, výška: 33 m

Aktuální stav počasí

Zpráva byla vytvořena před 13 minutami, v 13:30 UTC
Západní vítr 4 kt
Teplota 7°C
Vlhkost vzduchu 70%
Tlak 1023 hPa
Viditelnost 10 km a více
Polojasno ve výšce 4700 ft

METAR: URKK 251330Z 27002MPS 9999 SCT047 07/02 Q1023 R23L/190065 NOSIG RMK QFE763

Čas: 17:43 (13:43 UTC)

Předpověď počasí

Zpráva byla vytvořena před 2 hodinami a 49 minutami, v 10:54 UTC
Předpověď platná od 25 v 12 UTC do 26 v 12 UTC
Západní vítr 6 kt s nárazy do 16 kt
Viditelnost 10 km a více
Oblačno až skoro zataženo ve výšce 2000 ft, Cumulonimbus.
Dočasný
od 25 v 18 UTC do 26 v 09 UTC
Viditelnost: 3100 m
Polojasno ve výšce 1100 ft
Oblačno až skoro zataženo ve výšce 1600 ft, Cumulonimbus.
slabé dešťové přeháňky, kouřmo

TAF: URKK 251054Z 2512/2612 26003G08MPS 9999 BKN020CB TEMPO 2518/2609 3100 -SHRA BR SCT011 BKN016CB

Stav a předpovědi počasí z více než 4 000 letišť (zprávy METAR a TAF).

Červené a žluté tečky na mapě představují dostupné meteorologické stanice.

Když kurzor umístíte na tečku, zobrazí se název stanice.

Pak kliknutím zobrazíte stav a předpověď počasí.

Chcete-li změnit mapu, kliknutím na zelené tlačítko se znaménkem +mapu přiblížíte, kliknutím na zelené tlačítko se znaménkem – mapu oddálíte a kliknutím na zelené šipky přejdete na sousední mapy.


METAR-TAF: